sensor_id;sensor_type;location;lat;lon;timestamp;temperature;humidity
79049;DHT22;68680;50.764;6.120;2024-01-30T00:02:26;9.80;99.90
79049;DHT22;68680;50.764;6.120;2024-01-30T00:04:52;9.80;99.90
79049;DHT22;68680;50.764;6.120;2024-01-30T00:07:17;9.80;99.90
79049;DHT22;68680;50.764;6.120;2024-01-30T00:09:46;9.80;99.90
79049;DHT22;68680;50.764;6.120;2024-01-30T00:12:12;9.80;99.90
79049;DHT22;68680;50.764;6.120;2024-01-30T00:14:37;9.80;99.90
79049;DHT22;68680;50.764;6.120;2024-01-30T00:17:03;9.70;99.90
79049;DHT22;68680;50.764;6.120;2024-01-30T00:19:31;9.80;99.90
79049;DHT22;68680;50.764;6.120;2024-01-30T00:21:56;9.70;99.90
79049;DHT22;68680;50.764;6.120;2024-01-30T00:24:22;9.70;99.90
79049;DHT22;68680;50.764;6.120;2024-01-30T00:26:48;9.70;99.90
79049;DHT22;68680;50.764;6.120;2024-01-30T00:29:15;9.70;99.90
79049;DHT22;68680;50.764;6.120;2024-01-30T00:31:41;9.70;99.90
79049;DHT22;68680;50.764;6.120;2024-01-30T00:34:07;9.70;99.90
79049;DHT22;68680;50.764;6.120;2024-01-30T00:36:34;9.70;99.90
79049;DHT22;68680;50.764;6.120;2024-01-30T00:39:00;9.60;99.90
79049;DHT22;68680;50.764;6.120;2024-01-30T00:41:26;9.50;99.90
79049;DHT22;68680;50.764;6.120;2024-01-30T00:43:51;9.50;99.90
79049;DHT22;68680;50.764;6.120;2024-01-30T00:46:17;9.40;99.90
79049;DHT22;68680;50.764;6.120;2024-01-30T00:48:43;9.50;99.90
79049;DHT22;68680;50.764;6.120;2024-01-30T00:51:09;9.60;99.90
79049;DHT22;68680;50.764;6.120;2024-01-30T00:53:36;9.70;99.90
79049;DHT22;68680;50.764;6.120;2024-01-30T00:56:02;9.70;99.90
79049;DHT22;68680;50.764;6.120;2024-01-30T00:58:28;9.80;99.90
79049;DHT22;68680;50.764;6.120;2024-01-30T01:00:53;9.80;99.90
79049;DHT22;68680;50.764;6.120;2024-01-30T01:03:19;9.80;99.90
79049;DHT22;68680;50.764;6.120;2024-01-30T01:05:45;9.90;99.90
79049;DHT22;68680;50.764;6.120;2024-01-30T01:08:11;10.00;99.90
79049;DHT22;68680;50.764;6.120;2024-01-30T01:10:38;10.10;99.90
79049;DHT22;68680;50.764;6.120;2024-01-30T01:13:04;10.00;99.90
79049;DHT22;68680;50.764;6.120;2024-01-30T01:15:30;10.10;99.90
79049;DHT22;68680;50.764;6.120;2024-01-30T01:17:55;10.10;99.90
79049;DHT22;68680;50.764;6.120;2024-01-30T01:20:21;10.10;99.90
79049;DHT22;68680;50.764;6.120;2024-01-30T01:22:47;10.10;99.90
79049;DHT22;68680;50.764;6.120;2024-01-30T01:25:13;10.20;99.90
79049;DHT22;68680;50.764;6.120;2024-01-30T01:27:40;10.20;99.90
79049;DHT22;68680;50.764;6.120;2024-01-30T01:30:08;10.20;99.90
79049;DHT22;68680;50.764;6.120;2024-01-30T01:32:35;10.20;99.90
79049;DHT22;68680;50.764;6.120;2024-01-30T01:35:01;10.20;99.90
79049;DHT22;68680;50.764;6.120;2024-01-30T01:37:27;10.20;99.90
79049;DHT22;68680;50.764;6.120;2024-01-30T01:39:53;10.20;99.90
79049;DHT22;68680;50.764;6.120;2024-01-30T01:42:18;10.30;99.90
79049;DHT22;68680;50.764;6.120;2024-01-30T01:44:46;10.20;99.90
79049;DHT22;68680;50.764;6.120;2024-01-30T01:47:11;10.20;99.90
79049;DHT22;68680;50.764;6.120;2024-01-30T01:49:37;10.30;99.90
79049;DHT22;68680;50.764;6.120;2024-01-30T01:52:04;10.20;99.90
79049;DHT22;68680;50.764;6.120;2024-01-30T01:54:31;10.20;99.90
79049;DHT22;68680;50.764;6.120;2024-01-30T01:56:58;10.20;99.90
79049;DHT22;68680;50.764;6.120;2024-01-30T01:59:25;10.10;99.90
79049;DHT22;68680;50.764;6.120;2024-01-30T02:01:54;10.10;99.90
79049;DHT22;68680;50.764;6.120;2024-01-30T02:04:21;10.10;99.90
79049;DHT22;68680;50.764;6.120;2024-01-30T02:06:46;10.10;99.90
79049;DHT22;68680;50.764;6.120;2024-01-30T02:09:12;10.10;99.90
79049;DHT22;68680;50.764;6.120;2024-01-30T02:11:38;10.00;99.90
79049;DHT22;68680;50.764;6.120;2024-01-30T02:14:04;10.00;99.90
79049;DHT22;68680;50.764;6.120;2024-01-30T02:16:30;9.90;99.90
79049;DHT22;68680;50.764;6.120;2024-01-30T02:18:58;9.80;99.90
79049;DHT22;68680;50.764;6.120;2024-01-30T02:21:25;9.90;99.90
79049;DHT22;68680;50.764;6.120;2024-01-30T02:23:52;9.90;99.90
79049;DHT22;68680;50.764;6.120;2024-01-30T02:26:20;9.90;99.90
79049;DHT22;68680;50.764;6.120;2024-01-30T02:28:46;9.80;99.90
79049;DHT22;68680;50.764;6.120;2024-01-30T02:31:12;9.80;99.90
79049;DHT22;68680;50.764;6.120;2024-01-30T02:33:37;9.80;99.90
79049;DHT22;68680;50.764;6.120;2024-01-30T02:36:03;9.80;99.90
79049;DHT22;68680;50.764;6.120;2024-01-30T02:38:31;9.90;99.90
79049;DHT22;68680;50.764;6.120;2024-01-30T02:40:57;10.00;99.90
79049;DHT22;68680;50.764;6.120;2024-01-30T02:43:23;9.90;99.90
79049;DHT22;68680;50.764;6.120;2024-01-30T02:45:48;10.00;99.90
79049;DHT22;68680;50.764;6.120;2024-01-30T02:48:14;10.00;99.90
79049;DHT22;68680;50.764;6.120;2024-01-30T02:50:40;10.00;99.90
79049;DHT22;68680;50.764;6.120;2024-01-30T02:53:06;10.10;99.90
79049;DHT22;68680;50.764;6.120;2024-01-30T02:55:33;10.20;99.90
79049;DHT22;68680;50.764;6.120;2024-01-30T02:57:59;10.30;99.90
79049;DHT22;68680;50.764;6.120;2024-01-30T03:00:25;10.30;99.90
79049;DHT22;68680;50.764;6.120;2024-01-30T03:02:51;10.30;99.90
79049;DHT22;68680;50.764;6.120;2024-01-30T03:05:17;10.30;99.90
79049;DHT22;68680;50.764;6.120;2024-01-30T03:07:42;10.20;99.90
79049;DHT22;68680;50.764;6.120;2024-01-30T03:10:08;10.30;99.90
79049;DHT22;68680;50.764;6.120;2024-01-30T03:12:36;10.30;99.90
79049;DHT22;68680;50.764;6.120;2024-01-30T03:15:01;10.40;99.90
79049;DHT22;68680;50.764;6.120;2024-01-30T03:17:27;10.50;99.90
79049;DHT22;68680;50.764;6.120;2024-01-30T03:19:53;10.40;99.90
79049;DHT22;68680;50.764;6.120;2024-01-30T03:22:19;10.40;99.90
79049;DHT22;68680;50.764;6.120;2024-01-30T03:24:45;10.40;99.90
79049;DHT22;68680;50.764;6.120;2024-01-30T03:27:11;10.40;99.90
79049;DHT22;68680;50.764;6.120;2024-01-30T03:29:38;10.30;99.90
79049;DHT22;68680;50.764;6.120;2024-01-30T03:32:04;10.30;99.90
79049;DHT22;68680;50.764;6.120;2024-01-30T03:34:30;10.20;99.90
79049;DHT22;68680;50.764;6.120;2024-01-30T03:36:56;10.30;99.90
79049;DHT22;68680;50.764;6.120;2024-01-30T03:39:23;10.30;99.90
79049;DHT22;68680;50.764;6.120;2024-01-30T03:41:49;10.20;99.90
79049;DHT22;68680;50.764;6.120;2024-01-30T03:44:15;10.20;99.90
79049;DHT22;68680;50.764;6.120;2024-01-30T03:46:42;10.20;99.90
79049;DHT22;68680;50.764;6.120;2024-01-30T03:49:09;10.10;99.90
79049;DHT22;68680;50.764;6.120;2024-01-30T03:51:35;10.10;99.90
79049;DHT22;68680;50.764;6.120;2024-01-30T03:54:01;10.10;99.90
79049;DHT22;68680;50.764;6.120;2024-01-30T03:56:26;10.10;99.90
79049;DHT22;68680;50.764;6.120;2024-01-30T03:58:52;10.10;99.90
79049;DHT22;68680;50.764;6.120;2024-01-30T04:01:18;10.10;99.90
79049;DHT22;68680;50.764;6.120;2024-01-30T04:03:45;10.20;99.90
79049;DHT22;68680;50.764;6.120;2024-01-30T04:06:11;10.20;99.90
79049;DHT22;68680;50.764;6.120;2024-01-30T04:08:37;10.20;99.90
79049;DHT22;68680;50.764;6.120;2024-01-30T04:11:04;10.20;99.90
79049;DHT22;68680;50.764;6.120;2024-01-30T04:13:30;10.10;99.90
79049;DHT22;68680;50.764;6.120;2024-01-30T04:15:56;10.10;99.90
79049;DHT22;68680;50.764;6.120;2024-01-30T04:18:21;10.10;99.90
79049;DHT22;68680;50.764;6.120;2024-01-30T04:20:48;10.20;99.90
79049;DHT22;68680;50.764;6.120;2024-01-30T04:23:14;10.10;99.90
79049;DHT22;68680;50.764;6.120;2024-01-30T04:25:40;10.10;99.90
79049;DHT22;68680;50.764;6.120;2024-01-30T04:28:06;10.10;99.90
79049;DHT22;68680;50.764;6.120;2024-01-30T04:30:32;10.10;99.90
79049;DHT22;68680;50.764;6.120;2024-01-30T04:32:57;10.10;99.90
79049;DHT22;68680;50.764;6.120;2024-01-30T04:35:23;10.20;99.90
79049;DHT22;68680;50.764;6.120;2024-01-30T04:37:52;10.20;99.90
79049;DHT22;68680;50.764;6.120;2024-01-30T04:40:17;10.30;99.90
79049;DHT22;68680;50.764;6.120;2024-01-30T04:42:43;10.20;99.90
79049;DHT22;68680;50.764;6.120;2024-01-30T04:45:09;10.30;99.90
79049;DHT22;68680;50.764;6.120;2024-01-30T04:47:35;10.30;99.90
79049;DHT22;68680;50.764;6.120;2024-01-30T04:50:01;10.30;99.90
79049;DHT22;68680;50.764;6.120;2024-01-30T04:52:27;10.20;99.90
79049;DHT22;68680;50.764;6.120;2024-01-30T04:54:54;10.20;99.90
79049;DHT22;68680;50.764;6.120;2024-01-30T04:57:20;10.20;99.90
79049;DHT22;68680;50.764;6.120;2024-01-30T04:59:46;10.20;99.90
79049;DHT22;68680;50.764;6.120;2024-01-30T05:02:12;10.10;99.90
79049;DHT22;68680;50.764;6.120;2024-01-30T05:04:37;10.20;99.90
79049;DHT22;68680;50.764;6.120;2024-01-30T05:07:03;10.10;99.90
79049;DHT22;68680;50.764;6.120;2024-01-30T05:09:29;10.10;99.90
79049;DHT22;68680;50.764;6.120;2024-01-30T05:11:57;10.10;99.90
79049;DHT22;68680;50.764;6.120;2024-01-30T05:14:23;10.10;99.90
79049;DHT22;68680;50.764;6.120;2024-01-30T05:16:48;10.20;99.90
79049;DHT22;68680;50.764;6.120;2024-01-30T05:19:14;10.10;99.90
79049;DHT22;68680;50.764;6.120;2024-01-30T05:21:41;10.00;99.90
79049;DHT22;68680;50.764;6.120;2024-01-30T05:24:07;10.00;99.90
79049;DHT22;68680;50.764;6.120;2024-01-30T05:26:33;10.10;99.90
79049;DHT22;68680;50.764;6.120;2024-01-30T05:29:00;10.00;99.90
79049;DHT22;68680;50.764;6.120;2024-01-30T05:31:26;10.10;99.90
79049;DHT22;68680;50.764;6.120;2024-01-30T05:33:51;10.10;99.90
79049;DHT22;68680;50.764;6.120;2024-01-30T05:36:17;10.10;99.90
79049;DHT22;68680;50.764;6.120;2024-01-30T05:38:43;10.10;99.90
79049;DHT22;68680;50.764;6.120;2024-01-30T05:41:09;10.10;99.90
79049;DHT22;68680;50.764;6.120;2024-01-30T05:43:35;10.10;99.90
79049;DHT22;68680;50.764;6.120;2024-01-30T05:46:02;10.00;99.90
79049;DHT22;68680;50.764;6.120;2024-01-30T05:48:28;10.10;99.90
79049;DHT22;68680;50.764;6.120;2024-01-30T05:50:54;10.10;99.90
79049;DHT22;68680;50.764;6.120;2024-01-30T05:53:20;10.30;99.90
79049;DHT22;68680;50.764;6.120;2024-01-30T05:55:46;10.30;99.90
79049;DHT22;68680;50.764;6.120;2024-01-30T05:58:12;10.40;99.90
79049;DHT22;68680;50.764;6.120;2024-01-30T06:00:37;10.40;99.90
79049;DHT22;68680;50.764;6.120;2024-01-30T06:03:05;10.40;99.90
79049;DHT22;68680;50.764;6.120;2024-01-30T06:05:31;10.40;99.90
79049;DHT22;68680;50.764;6.120;2024-01-30T06:07:56;10.50;99.90
79049;DHT22;68680;50.764;6.120;2024-01-30T06:10:22;10.50;99.90
79049;DHT22;68680;50.764;6.120;2024-01-30T06:12:48;10.50;99.90
79049;DHT22;68680;50.764;6.120;2024-01-30T06:15:14;10.50;99.90
79049;DHT22;68680;50.764;6.120;2024-01-30T06:17:40;10.60;99.90
79049;DHT22;68680;50.764;6.120;2024-01-30T06:20:08;10.60;99.90
79049;DHT22;68680;50.764;6.120;2024-01-30T06:22:33;10.60;99.90
79049;DHT22;68680;50.764;6.120;2024-01-30T06:24:59;10.70;99.90
79049;DHT22;68680;50.764;6.120;2024-01-30T06:27:25;10.70;99.90
79049;DHT22;68680;50.764;6.120;2024-01-30T06:29:51;10.70;99.90
79049;DHT22;68680;50.764;6.120;2024-01-30T06:32:17;10.70;99.90
79049;DHT22;68680;50.764;6.120;2024-01-30T06:34:43;10.70;99.90
79049;DHT22;68680;50.764;6.120;2024-01-30T06:37:10;10.70;99.90
79049;DHT22;68680;50.764;6.120;2024-01-30T06:39:36;10.80;99.90
79049;DHT22;68680;50.764;6.120;2024-01-30T06:42:02;10.70;99.90
79049;DHT22;68680;50.764;6.120;2024-01-30T06:44:28;10.70;99.90
79049;DHT22;68680;50.764;6.120;2024-01-30T06:46:53;10.70;99.90
79049;DHT22;68680;50.764;6.120;2024-01-30T06:49:19;10.70;99.90
79049;DHT22;68680;50.764;6.120;2024-01-30T06:51:45;10.70;99.90
79049;DHT22;68680;50.764;6.120;2024-01-30T06:54:12;10.70;99.90
79049;DHT22;68680;50.764;6.120;2024-01-30T06:56:38;10.70;99.90
79049;DHT22;68680;50.764;6.120;2024-01-30T06:59:04;10.70;99.90
79049;DHT22;68680;50.764;6.120;2024-01-30T07:01:30;10.70;99.90
79049;DHT22;68680;50.764;6.120;2024-01-30T07:03:56;10.70;99.90
79049;DHT22;68680;50.764;6.120;2024-01-30T07:06:22;10.70;99.90
79049;DHT22;68680;50.764;6.120;2024-01-30T07:08:49;10.70;99.90
79049;DHT22;68680;50.764;6.120;2024-01-30T07:11:20;10.70;99.90
79049;DHT22;68680;50.764;6.120;2024-01-30T07:13:46;10.70;99.90
79049;DHT22;68680;50.764;6.120;2024-01-30T07:16:12;10.70;99.90
79049;DHT22;68680;50.764;6.120;2024-01-30T07:18:38;10.70;99.90
79049;DHT22;68680;50.764;6.120;2024-01-30T07:21:04;10.80;99.90
79049;DHT22;68680;50.764;6.120;2024-01-30T07:23:30;10.80;99.90
79049;DHT22;68680;50.764;6.120;2024-01-30T07:25:56;10.90;99.90
79049;DHT22;68680;50.764;6.120;2024-01-30T07:28:25;10.90;99.90
79049;DHT22;68680;50.764;6.120;2024-01-30T07:30:51;10.90;99.90
79049;DHT22;68680;50.764;6.120;2024-01-30T07:33:17;10.90;99.90
79049;DHT22;68680;50.764;6.120;2024-01-30T07:35:43;10.90;99.90
79049;DHT22;68680;50.764;6.120;2024-01-30T07:38:08;10.90;99.90
79049;DHT22;68680;50.764;6.120;2024-01-30T07:40:34;10.90;99.90
79049;DHT22;68680;50.764;6.120;2024-01-30T07:43:00;10.90;99.90
79049;DHT22;68680;50.764;6.120;2024-01-30T07:45:27;11.00;99.90
79049;DHT22;68680;50.764;6.120;2024-01-30T07:47:53;11.00;99.90
79049;DHT22;68680;50.764;6.120;2024-01-30T07:50:19;11.00;99.90
79049;DHT22;68680;50.764;6.120;2024-01-30T07:52:45;11.00;99.90
79049;DHT22;68680;50.764;6.120;2024-01-30T07:55:11;11.00;99.90
79049;DHT22;68680;50.764;6.120;2024-01-30T07:57:38;11.00;99.90
79049;DHT22;68680;50.764;6.120;2024-01-30T08:00:05;11.00;99.90
79049;DHT22;68680;50.764;6.120;2024-01-30T08:02:33;11.00;99.90
79049;DHT22;68680;50.764;6.120;2024-01-30T08:04:59;11.00;99.90
79049;DHT22;68680;50.764;6.120;2024-01-30T08:07:25;11.00;99.90
79049;DHT22;68680;50.764;6.120;2024-01-30T08:09:51;11.00;99.90
79049;DHT22;68680;50.764;6.120;2024-01-30T08:12:17;11.10;99.90
79049;DHT22;68680;50.764;6.120;2024-01-30T08:14:42;11.10;99.90
79049;DHT22;68680;50.764;6.120;2024-01-30T08:17:08;11.10;99.90
79049;DHT22;68680;50.764;6.120;2024-01-30T08:19:35;11.00;99.90
79049;DHT22;68680;50.764;6.120;2024-01-30T08:22:01;11.00;99.90
79049;DHT22;68680;50.764;6.120;2024-01-30T08:24:27;11.00;99.90
79049;DHT22;68680;50.764;6.120;2024-01-30T08:26:53;11.00;99.90
79049;DHT22;68680;50.764;6.120;2024-01-30T08:29:19;11.00;99.90
79049;DHT22;68680;50.764;6.120;2024-01-30T08:31:45;11.00;99.90
79049;DHT22;68680;50.764;6.120;2024-01-30T08:34:11;11.10;99.90
79049;DHT22;68680;50.764;6.120;2024-01-30T08:36:38;11.20;99.90
79049;DHT22;68680;50.764;6.120;2024-01-30T08:39:04;11.20;99.90
79049;DHT22;68680;50.764;6.120;2024-01-30T08:41:29;11.20;99.90
79049;DHT22;68680;50.764;6.120;2024-01-30T08:43:55;11.20;99.90
79049;DHT22;68680;50.764;6.120;2024-01-30T08:46:21;11.30;99.90
79049;DHT22;68680;50.764;6.120;2024-01-30T08:48:47;11.30;99.90
79049;DHT22;68680;50.764;6.120;2024-01-30T08:51:13;11.30;99.90
79049;DHT22;68680;50.764;6.120;2024-01-30T08:53:40;11.40;99.90
79049;DHT22;68680;50.764;6.120;2024-01-30T08:56:06;11.40;99.90
79049;DHT22;68680;50.764;6.120;2024-01-30T08:58:32;11.40;99.90
79049;DHT22;68680;50.764;6.120;2024-01-30T09:00:58;11.40;99.90
79049;DHT22;68680;50.764;6.120;2024-01-30T09:03:24;11.40;99.90
79049;DHT22;68680;50.764;6.120;2024-01-30T09:05:50;11.50;99.90
79049;DHT22;68680;50.764;6.120;2024-01-30T09:08:16;11.60;99.90
79049;DHT22;68680;50.764;6.120;2024-01-30T09:10:43;11.60;99.90
79049;DHT22;68680;50.764;6.120;2024-01-30T09:13:09;11.60;99.70
79049;DHT22;68680;50.764;6.120;2024-01-30T09:15:35;11.70;99.80
79049;DHT22;68680;50.764;6.120;2024-01-30T09:18:01;11.80;99.90
79049;DHT22;68680;50.764;6.120;2024-01-30T09:20:27;11.80;99.70
79049;DHT22;68680;50.764;6.120;2024-01-30T09:22:52;11.90;99.80
79049;DHT22;68680;50.764;6.120;2024-01-30T09:25:18;12.00;99.20
79049;DHT22;68680;50.764;6.120;2024-01-30T09:27:46;12.10;98.80
79049;DHT22;68680;50.764;6.120;2024-01-30T09:30:12;12.10;98.80
79049;DHT22;68680;50.764;6.120;2024-01-30T09:32:39;12.10;98.80
79049;DHT22;68680;50.764;6.120;2024-01-30T09:35:05;12.20;99.00
79049;DHT22;68680;50.764;6.120;2024-01-30T09:37:32;12.20;99.30
79049;DHT22;68680;50.764;6.120;2024-01-30T09:39:58;12.30;98.40
79049;DHT22;68680;50.764;6.120;2024-01-30T09:42:27;12.30;98.80
79049;DHT22;68680;50.764;6.120;2024-01-30T09:44:59;12.40;98.40
79049;DHT22;68680;50.764;6.120;2024-01-30T09:47:26;12.30;98.50
79049;DHT22;68680;50.764;6.120;2024-01-30T09:49:52;12.30;98.10
79049;DHT22;68680;50.764;6.120;2024-01-30T09:52:18;12.30;98.10
79049;DHT22;68680;50.764;6.120;2024-01-30T09:54:45;12.30;98.80
79049;DHT22;68680;50.764;6.120;2024-01-30T09:57:12;12.30;98.80
79049;DHT22;68680;50.764;6.120;2024-01-30T09:59:38;12.30;98.40
79049;DHT22;68680;50.764;6.120;2024-01-30T10:02:05;12.30;98.70
79049;DHT22;68680;50.764;6.120;2024-01-30T10:04:32;12.30;98.50
79049;DHT22;68680;50.764;6.120;2024-01-30T10:07:01;12.30;98.70
79049;DHT22;68680;50.764;6.120;2024-01-30T10:09:27;12.30;98.70
79049;DHT22;68680;50.764;6.120;2024-01-30T10:11:53;12.30;98.90
79049;DHT22;68680;50.764;6.120;2024-01-30T10:14:19;12.20;99.30
79049;DHT22;68680;50.764;6.120;2024-01-30T10:16:46;12.30;99.30
79049;DHT22;68680;50.764;6.120;2024-01-30T10:19:13;12.20;99.10
79049;DHT22;68680;50.764;6.120;2024-01-30T10:21:39;12.30;99.20
79049;DHT22;68680;50.764;6.120;2024-01-30T10:24:06;12.20;99.40
79049;DHT22;68680;50.764;6.120;2024-01-30T10:26:32;12.20;99.90
79049;DHT22;68680;50.764;6.120;2024-01-30T10:28:58;12.20;99.90
79049;DHT22;68680;50.764;6.120;2024-01-30T10:31:24;12.10;99.90
79049;DHT22;68680;50.764;6.120;2024-01-30T10:33:50;12.10;99.90
79049;DHT22;68680;50.764;6.120;2024-01-30T10:36:18;12.10;99.90
79049;DHT22;68680;50.764;6.120;2024-01-30T10:38:47;12.10;99.90
79049;DHT22;68680;50.764;6.120;2024-01-30T10:41:19;12.10;99.90
79049;DHT22;68680;50.764;6.120;2024-01-30T10:44:01;12.10;99.90
79049;DHT22;68680;50.764;6.120;2024-01-30T10:46:33;12.10;99.90
79049;DHT22;68680;50.764;6.120;2024-01-30T10:49:04;12.20;99.90
79049;DHT22;68680;50.764;6.120;2024-01-30T10:51:32;12.20;99.90
79049;DHT22;68680;50.764;6.120;2024-01-30T10:54:00;12.30;99.90
79049;DHT22;68680;50.764;6.120;2024-01-30T10:56:28;12.30;99.90
79049;DHT22;68680;50.764;6.120;2024-01-30T10:58:55;12.30;99.90
79049;DHT22;68680;50.764;6.120;2024-01-30T11:01:22;12.30;99.90
79049;DHT22;68680;50.764;6.120;2024-01-30T11:03:50;12.20;99.90
79049;DHT22;68680;50.764;6.120;2024-01-30T11:06:16;12.20;99.90
79049;DHT22;68680;50.764;6.120;2024-01-30T11:08:44;12.20;99.90
79049;DHT22;68680;50.764;6.120;2024-01-30T11:11:10;12.20;99.90
79049;DHT22;68680;50.764;6.120;2024-01-30T11:13:36;12.20;99.90
79049;DHT22;68680;50.764;6.120;2024-01-30T11:16:03;12.30;99.90
79049;DHT22;68680;50.764;6.120;2024-01-30T11:18:31;12.40;99.90
79049;DHT22;68680;50.764;6.120;2024-01-30T11:20:58;12.40;99.90
79049;DHT22;68680;50.764;6.120;2024-01-30T11:23:26;12.30;99.90
79049;DHT22;68680;50.764;6.120;2024-01-30T11:25:54;12.30;99.90
79049;DHT22;68680;50.764;6.120;2024-01-30T11:28:21;12.20;99.90
79049;DHT22;68680;50.764;6.120;2024-01-30T11:30:47;12.10;99.90
79049;DHT22;68680;50.764;6.120;2024-01-30T11:33:14;11.90;99.90
79049;DHT22;68680;50.764;6.120;2024-01-30T11:35:41;11.90;99.90
79049;DHT22;68680;50.764;6.120;2024-01-30T11:38:09;12.00;99.90
79049;DHT22;68680;50.764;6.120;2024-01-30T11:40:37;12.00;99.90
79049;DHT22;68680;50.764;6.120;2024-01-30T11:43:06;12.00;99.90
79049;DHT22;68680;50.764;6.120;2024-01-30T11:45:34;12.00;99.90
79049;DHT22;68680;50.764;6.120;2024-01-30T11:48:00;12.00;99.90
79049;DHT22;68680;50.764;6.120;2024-01-30T11:50:27;12.00;99.90
79049;DHT22;68680;50.764;6.120;2024-01-30T11:52:54;11.90;99.90
79049;DHT22;68680;50.764;6.120;2024-01-30T11:55:20;11.90;99.90
79049;DHT22;68680;50.764;6.120;2024-01-30T11:57:46;11.90;99.90
79049;DHT22;68680;50.764;6.120;2024-01-30T12:00:17;11.80;99.90
79049;DHT22;68680;50.764;6.120;2024-01-30T12:02:48;11.70;99.90
79049;DHT22;68680;50.764;6.120;2024-01-30T12:05:15;11.70;99.90
79049;DHT22;68680;50.764;6.120;2024-01-30T12:07:44;11.70;99.90
79049;DHT22;68680;50.764;6.120;2024-01-30T12:10:10;11.70;99.90
79049;DHT22;68680;50.764;6.120;2024-01-30T12:12:36;11.60;99.90
79049;DHT22;68680;50.764;6.120;2024-01-30T12:15:03;11.50;99.90
79049;DHT22;68680;50.764;6.120;2024-01-30T12:17:32;11.50;99.90
79049;DHT22;68680;50.764;6.120;2024-01-30T12:20:05;11.30;99.90
79049;DHT22;68680;50.764;6.120;2024-01-30T12:22:35;11.30;99.90
79049;DHT22;68680;50.764;6.120;2024-01-30T12:25:02;11.40;99.90
79049;DHT22;68680;50.764;6.120;2024-01-30T12:27:29;11.30;99.90
79049;DHT22;68680;50.764;6.120;2024-01-30T12:29:56;11.30;99.90
79049;DHT22;68680;50.764;6.120;2024-01-30T12:32:22;11.30;99.90
79049;DHT22;68680;50.764;6.120;2024-01-30T12:34:50;11.30;99.90
79049;DHT22;68680;50.764;6.120;2024-01-30T12:37:16;11.30;99.90
79049;DHT22;68680;50.764;6.120;2024-01-30T12:39:41;11.30;99.90
79049;DHT22;68680;50.764;6.120;2024-01-30T12:42:07;11.30;99.90
79049;DHT22;68680;50.764;6.120;2024-01-30T12:44:34;11.30;99.90
79049;DHT22;68680;50.764;6.120;2024-01-30T12:47:03;11.30;99.90
79049;DHT22;68680;50.764;6.120;2024-01-30T12:49:29;11.30;99.90
79049;DHT22;68680;50.764;6.120;2024-01-30T12:51:56;11.40;99.90
79049;DHT22;68680;50.764;6.120;2024-01-30T12:54:23;11.40;99.90
79049;DHT22;68680;50.764;6.120;2024-01-30T12:56:49;11.40;99.90
79049;DHT22;68680;50.764;6.120;2024-01-30T12:59:16;11.40;99.90
79049;DHT22;68680;50.764;6.120;2024-01-30T13:01:41;11.30;99.90
79049;DHT22;68680;50.764;6.120;2024-01-30T13:04:07;11.30;99.90
79049;DHT22;68680;50.764;6.120;2024-01-30T13:06:33;11.30;99.90
79049;DHT22;68680;50.764;6.120;2024-01-30T13:09:00;11.30;99.90
79049;DHT22;68680;50.764;6.120;2024-01-30T13:11:26;11.30;99.90
79049;DHT22;68680;50.764;6.120;2024-01-30T13:13:52;11.20;99.90
79049;DHT22;68680;50.764;6.120;2024-01-30T13:16:18;11.20;99.90
79049;DHT22;68680;50.764;6.120;2024-01-30T13:18:44;11.10;99.90
79049;DHT22;68680;50.764;6.120;2024-01-30T13:21:10;11.10;99.90
79049;DHT22;68680;50.764;6.120;2024-01-30T13:23:36;11.10;99.90
79049;DHT22;68680;50.764;6.120;2024-01-30T13:26:03;11.10;99.90
79049;DHT22;68680;50.764;6.120;2024-01-30T13:28:29;11.10;99.90
79049;DHT22;68680;50.764;6.120;2024-01-30T13:30:55;11.10;99.90
79049;DHT22;68680;50.764;6.120;2024-01-30T13:33:21;11.10;99.90
79049;DHT22;68680;50.764;6.120;2024-01-30T13:35:47;11.10;99.90
79049;DHT22;68680;50.764;6.120;2024-01-30T13:38:12;11.10;99.90
79049;DHT22;68680;50.764;6.120;2024-01-30T13:40:38;11.00;99.90
79049;DHT22;68680;50.764;6.120;2024-01-30T13:43:05;11.00;99.90
79049;DHT22;68680;50.764;6.120;2024-01-30T13:45:31;11.00;99.90
79049;DHT22;68680;50.764;6.120;2024-01-30T13:47:57;11.00;99.90
79049;DHT22;68680;50.764;6.120;2024-01-30T13:50:23;11.00;99.90
79049;DHT22;68680;50.764;6.120;2024-01-30T13:52:49;11.00;99.90
79049;DHT22;68680;50.764;6.120;2024-01-30T13:55:15;11.10;99.90
79049;DHT22;68680;50.764;6.120;2024-01-30T13:57:40;11.00;99.90
79049;DHT22;68680;50.764;6.120;2024-01-30T14:00:09;11.00;99.90
79049;DHT22;68680;50.764;6.120;2024-01-30T14:02:36;11.00;99.90
79049;DHT22;68680;50.764;6.120;2024-01-30T14:05:01;11.00;99.90
79049;DHT22;68680;50.764;6.120;2024-01-30T14:07:27;11.00;99.90
79049;DHT22;68680;50.764;6.120;2024-01-30T14:09:53;11.10;99.90
79049;DHT22;68680;50.764;6.120;2024-01-30T14:12:19;11.10;99.90
79049;DHT22;68680;50.764;6.120;2024-01-30T14:14:45;11.20;99.90
79049;DHT22;68680;50.764;6.120;2024-01-30T14:17:12;11.20;99.90
79049;DHT22;68680;50.764;6.120;2024-01-30T14:19:38;11.20;99.90
79049;DHT22;68680;50.764;6.120;2024-01-30T14:22:04;11.10;99.90
79049;DHT22;68680;50.764;6.120;2024-01-30T14:24:30;11.10;99.90
79049;DHT22;68680;50.764;6.120;2024-01-30T14:26:56;11.20;99.90
79049;DHT22;68680;50.764;6.120;2024-01-30T14:29:22;11.20;99.90
79049;DHT22;68680;50.764;6.120;2024-01-30T14:31:47;11.10;99.90
79049;DHT22;68680;50.764;6.120;2024-01-30T14:34:15;11.10;99.90
79049;DHT22;68680;50.764;6.120;2024-01-30T14:36:40;11.00;99.90
79049;DHT22;68680;50.764;6.120;2024-01-30T14:39:06;11.00;99.90
79049;DHT22;68680;50.764;6.120;2024-01-30T14:41:32;11.00;99.90
79049;DHT22;68680;50.764;6.120;2024-01-30T14:43:58;10.90;99.90
79049;DHT22;68680;50.764;6.120;2024-01-30T14:46:24;10.90;99.90
79049;DHT22;68680;50.764;6.120;2024-01-30T14:48:51;10.90;99.90
79049;DHT22;68680;50.764;6.120;2024-01-30T14:51:18;10.90;99.90
79049;DHT22;68680;50.764;6.120;2024-01-30T14:53:44;10.90;99.90
79049;DHT22;68680;50.764;6.120;2024-01-30T14:56:10;10.90;99.90
79049;DHT22;68680;50.764;6.120;2024-01-30T14:58:36;10.80;99.90
79049;DHT22;68680;50.764;6.120;2024-01-30T15:01:03;10.70;99.90
79049;DHT22;68680;50.764;6.120;2024-01-30T15:03:29;10.50;99.90
79049;DHT22;68680;50.764;6.120;2024-01-30T15:05:54;10.30;99.90
79049;DHT22;68680;50.764;6.120;2024-01-30T15:08:22;10.10;99.90
79049;DHT22;68680;50.764;6.120;2024-01-30T15:10:48;10.00;99.90
79049;DHT22;68680;50.764;6.120;2024-01-30T15:13:15;9.90;99.90
79049;DHT22;68680;50.764;6.120;2024-01-30T15:15:41;9.80;99.90
79049;DHT22;68680;50.764;6.120;2024-01-30T15:18:08;9.80;99.90
79049;DHT22;68680;50.764;6.120;2024-01-30T15:20:33;9.80;99.90
79049;DHT22;68680;50.764;6.120;2024-01-30T15:22:59;9.80;99.90
79049;DHT22;68680;50.764;6.120;2024-01-30T15:25:26;9.70;99.90
79049;DHT22;68680;50.764;6.120;2024-01-30T15:27:52;9.70;99.90